createdAt,value
2022-10-28T00:00:06.492Z,3.80
2022-10-28T00:02:33.168Z,3.88
2022-10-28T00:04:59.699Z,3.60
2022-10-28T00:07:27.849Z,3.83
2022-10-28T00:09:54.408Z,4.40
2022-10-28T00:12:20.833Z,3.50
2022-10-28T00:14:47.249Z,4.22
2022-10-28T00:17:13.769Z,3.88
2022-10-28T00:19:40.350Z,3.80
2022-10-28T00:22:06.786Z,3.60
2022-10-28T00:24:33.229Z,4.10
2022-10-28T00:26:59.666Z,4.15
2022-10-28T00:29:26.096Z,3.38
2022-10-28T00:31:52.763Z,3.47
2022-10-28T00:34:21.782Z,3.28
2022-10-28T00:36:48.705Z,3.28
2022-10-28T00:39:22.645Z,3.20
2022-10-28T00:41:50.537Z,3.50
2022-10-28T00:44:35.548Z,3.30
2022-10-28T00:47:01.982Z,3.88
2022-10-28T00:49:30.186Z,3.80
2022-10-28T00:52:00.098Z,3.50
2022-10-28T00:54:27.150Z,3.47
2022-10-28T00:56:55.435Z,3.38
2022-10-28T00:59:24.709Z,3.60
2022-10-28T01:01:51.253Z,3.58
2022-10-28T01:04:18.339Z,3.50
2022-10-28T01:06:44.802Z,3.13
2022-10-28T01:09:11.254Z,3.45
2022-10-28T01:11:48.929Z,3.70
2022-10-28T01:14:21.773Z,3.30
2022-10-28T01:16:48.226Z,3.40
2022-10-28T01:19:29.815Z,3.35
2022-10-28T01:22:06.998Z,2.90
2022-10-28T01:24:42.348Z,3.40
2022-10-28T01:27:08.769Z,3.50
2022-10-28T01:29:44.776Z,3.50
2022-10-28T01:32:34.345Z,3.38
2022-10-28T01:35:22.770Z,2.97
2022-10-28T01:38:08.540Z,3.30
2022-10-28T01:40:44.189Z,3.30
2022-10-28T01:43:23.069Z,3.20
2022-10-28T01:45:58.590Z,3.47
2022-10-28T01:48:30.641Z,2.95
2022-10-28T01:51:00.155Z,3.00
2022-10-28T01:53:28.717Z,3.30
2022-10-28T01:55:57.040Z,3.42
2022-10-28T01:58:26.717Z,2.88
2022-10-28T02:00:53.641Z,2.90
2022-10-28T02:03:20.105Z,3.13
2022-10-28T02:05:47.782Z,2.65
2022-10-28T02:08:20.050Z,3.33
2022-10-28T02:13:13.833Z,3.10
2022-10-28T02:15:48.259Z,2.70
2022-10-28T02:18:21.053Z,2.95
2022-10-28T02:21:02.083Z,2.90
2022-10-28T02:23:42.572Z,3.13
2022-10-28T02:26:14.137Z,2.97
2022-10-28T02:28:47.432Z,2.80
2022-10-28T02:31:20.712Z,2.92
2022-10-28T02:33:50.331Z,2.90
2022-10-28T02:36:18.206Z,3.00
2022-10-28T02:38:49.562Z,2.75
2022-10-28T02:41:21.871Z,2.90
2022-10-28T02:43:49.294Z,2.63
2022-10-28T02:46:16.950Z,2.83
2022-10-28T02:48:43.554Z,3.38
2022-10-28T02:51:18.847Z,2.70
2022-10-28T02:54:05.512Z,2.80
2022-10-28T02:56:33.464Z,2.55
2022-10-28T02:58:59.862Z,2.72
2022-10-28T03:01:26.470Z,2.97
2022-10-28T03:03:52.994Z,2.83
2022-10-28T03:06:19.450Z,2.80
2022-10-28T03:08:46.158Z,2.50
2022-10-28T03:11:12.573Z,2.40
2022-10-28T03:13:39.012Z,2.60
2022-10-28T03:16:05.446Z,2.90
2022-10-28T03:18:31.897Z,2.55
2022-10-28T03:20:59.127Z,2.40
2022-10-28T03:23:25.806Z,2.42
2022-10-28T03:25:52.236Z,2.90
2022-10-28T03:28:18.677Z,2.63
2022-10-28T03:30:45.152Z,2.40
2022-10-28T03:33:11.623Z,2.47
2022-10-28T03:35:38.067Z,2.53
2022-10-28T03:38:04.514Z,2.08
2022-10-28T03:40:30.976Z,2.30
2022-10-28T03:42:57.414Z,2.28
2022-10-28T03:45:24.019Z,2.10
2022-10-28T03:47:50.554Z,2.20
2022-10-28T03:50:17.209Z,2.00
2022-10-28T03:52:47.049Z,2.10
2022-10-28T03:55:13.516Z,2.45
2022-10-28T03:57:39.947Z,2.50
2022-10-28T04:00:06.817Z,2.20
2022-10-28T04:02:33.324Z,2.15
2022-10-28T04:04:59.755Z,2.28
2022-10-28T04:07:26.208Z,2.30
2022-10-28T04:09:52.688Z,1.92
2022-10-28T04:12:19.182Z,2.30
2022-10-28T04:14:45.861Z,2.10
2022-10-28T04:17:12.351Z,2.70
2022-10-28T04:19:38.765Z,2.20
2022-10-28T04:22:06.108Z,2.00
2022-10-28T04:24:32.504Z,2.38
2022-10-28T04:26:59.098Z,2.13
2022-10-28T04:29:25.534Z,2.45
2022-10-28T04:31:52.521Z,2.17
2022-10-28T04:34:19.242Z,1.90
2022-10-28T04:36:45.691Z,2.40
2022-10-28T04:39:12.140Z,2.17
2022-10-28T04:41:38.581Z,2.20
2022-10-28T04:44:05.042Z,2.38
2022-10-28T04:46:31.426Z,2.20
2022-10-28T04:48:57.874Z,2.38
2022-10-28T04:51:24.326Z,1.88
2022-10-28T04:53:50.797Z,2.30
2022-10-28T04:56:17.271Z,1.98
2022-10-28T04:58:43.671Z,2.13
2022-10-28T05:01:10.576Z,2.17
2022-10-28T05:03:37.135Z,1.98
2022-10-28T05:06:03.834Z,2.10
2022-10-28T05:08:30.224Z,2.40
2022-10-28T05:10:56.851Z,1.92
2022-10-28T05:13:23.290Z,2.10
2022-10-28T05:15:50.153Z,2.03
2022-10-28T05:18:16.742Z,2.28
2022-10-28T05:20:43.991Z,2.45
2022-10-28T05:23:10.709Z,2.20
2022-10-28T05:25:37.141Z,2.53
2022-10-28T05:28:03.705Z,2.50
2022-10-28T05:30:30.168Z,2.30
2022-10-28T05:33:01.471Z,2.33
2022-10-28T05:35:28.762Z,2.60
2022-10-28T05:37:55.307Z,2.22
2022-10-28T05:40:21.713Z,2.38
2022-10-28T05:42:48.196Z,2.33
2022-10-28T05:45:14.738Z,2.55
2022-10-28T05:47:48.123Z,2.72
2022-10-28T05:50:15.911Z,2.30
2022-10-28T05:52:52.505Z,2.03
2022-10-28T05:55:20.280Z,2.40
2022-10-28T05:57:47.351Z,2.42
2022-10-28T06:00:14.505Z,2.28
2022-10-28T06:02:41.439Z,2.15
2022-10-28T06:05:08.400Z,2.47
2022-10-28T06:07:35.204Z,2.53
2022-10-28T06:10:02.457Z,2.38
2022-10-28T06:12:27.415Z,2.50
2022-10-28T06:14:53.950Z,2.63
2022-10-28T06:17:20.462Z,2.40
2022-10-28T06:19:46.886Z,2.60
2022-10-28T06:22:13.380Z,2.35
2022-10-28T06:24:39.816Z,2.50
2022-10-28T06:27:06.628Z,2.55
2022-10-28T06:29:33.468Z,2.50
2022-10-28T06:31:59.930Z,2.55
2022-10-28T06:34:26.354Z,2.40
2022-10-28T06:36:53.073Z,2.38
2022-10-28T06:39:19.583Z,2.60
2022-10-28T06:41:45.984Z,2.30
2022-10-28T06:44:12.427Z,2.38
2022-10-28T06:46:40.336Z,2.47
2022-10-28T06:49:06.823Z,2.13
2022-10-28T06:51:33.275Z,2.20
2022-10-28T06:53:59.768Z,2.15
2022-10-28T06:56:26.272Z,2.35
2022-10-28T06:58:53.272Z,1.90
2022-10-28T07:01:20.185Z,2.15
2022-10-28T07:03:47.218Z,1.90
2022-10-28T07:08:45.638Z,2.20
2022-10-28T07:11:12.145Z,2.20
2022-10-28T07:13:38.633Z,1.92
2022-10-28T07:16:05.280Z,2.00
2022-10-28T07:18:31.786Z,2.00
2022-10-28T07:20:58.819Z,1.83
2022-10-28T07:23:25.303Z,2.30
2022-10-28T07:25:55.743Z,2.53
2022-10-28T07:28:22.747Z,1.95
2022-10-28T07:30:49.222Z,2.15
2022-10-28T07:33:15.658Z,2.53
2022-10-28T07:35:42.917Z,2.10
2022-10-28T07:38:09.339Z,1.88
2022-10-28T07:40:35.810Z,1.70
2022-10-28T07:43:02.357Z,2.17
2022-10-28T07:45:28.842Z,2.10
2022-10-28T07:47:55.315Z,1.92
2022-10-28T07:50:21.731Z,2.03
2022-10-28T07:52:48.157Z,1.92
2022-10-28T07:55:14.573Z,2.05
2022-10-28T07:57:41.041Z,2.30
2022-10-28T08:00:07.812Z,1.77
2022-10-28T08:02:34.292Z,2.00
2022-10-28T08:05:02.676Z,1.90
2022-10-28T08:07:29.116Z,2.20
2022-10-28T08:09:55.613Z,1.60
2022-10-28T08:12:22.034Z,2.17
2022-10-28T08:14:48.502Z,2.10
2022-10-28T08:17:15.185Z,1.75
2022-10-28T08:19:41.716Z,2.08
2022-10-28T08:22:08.165Z,2.20
2022-10-28T08:24:34.579Z,1.98
2022-10-28T08:27:01.471Z,1.73
2022-10-28T08:29:30.212Z,1.92
2022-10-28T08:31:57.934Z,2.10
2022-10-28T08:34:29.707Z,2.08
2022-10-28T08:36:57.304Z,2.10
2022-10-28T08:39:23.803Z,2.25
2022-10-28T08:41:52.618Z,2.08
2022-10-28T08:44:34.721Z,1.98
2022-10-28T08:47:13.324Z,2.00
2022-10-28T08:49:43.376Z,1.90
2022-10-28T08:52:21.246Z,1.77
2022-10-28T08:54:53.685Z,1.70
2022-10-28T08:57:31.130Z,1.60
2022-10-28T08:59:59.941Z,1.88
2022-10-28T09:02:28.911Z,1.90
2022-10-28T09:05:02.740Z,1.70
2022-10-28T09:07:29.474Z,2.53
2022-10-28T09:09:55.992Z,3.75
2022-10-28T09:12:25.439Z,1.92
2022-10-28T09:14:51.834Z,1.67
2022-10-28T09:17:20.285Z,2.47
2022-10-28T09:20:13.616Z,1.90
2022-10-28T09:22:46.079Z,1.92
2022-10-28T09:25:35.638Z,1.75
2022-10-28T09:28:20.796Z,1.67
2022-10-28T09:30:52.974Z,2.17
2022-10-28T09:33:25.290Z,1.42
2022-10-28T09:35:51.970Z,3.13
2022-10-28T09:38:24.772Z,1.50
2022-10-28T09:40:54.413Z,1.70
2022-10-28T09:43:20.826Z,1.92
2022-10-28T09:45:48.407Z,2.85
2022-10-28T09:48:19.276Z,2.03
2022-10-28T09:50:45.766Z,2.10
2022-10-28T09:53:19.227Z,2.20
2022-10-28T09:55:45.703Z,1.90
2022-10-28T09:58:12.878Z,2.65
2022-10-28T10:00:39.697Z,2.60
2022-10-28T10:03:06.247Z,2.08
2022-10-28T10:05:37.194Z,2.45
2022-10-28T10:08:04.696Z,1.80
2022-10-28T10:10:50.901Z,1.85
2022-10-28T10:13:20.005Z,2.05
2022-10-28T10:15:52.849Z,2.25
2022-10-28T10:18:23.020Z,1.75
2022-10-28T10:20:50.901Z,2.10
2022-10-28T10:23:26.531Z,2.00
2022-10-28T10:25:59.080Z,2.20
2022-10-28T10:28:26.162Z,1.90
2022-10-28T10:30:54.237Z,1.88
2022-10-28T10:33:22.164Z,2.15
2022-10-28T10:36:14.985Z,1.65
2022-10-28T10:38:49.237Z,1.65
2022-10-28T10:41:35.371Z,1.90
2022-10-28T10:44:01.960Z,1.85
2022-10-28T10:46:28.540Z,1.80
2022-10-28T10:49:12.955Z,1.77
2022-10-28T10:51:41.364Z,1.63
2022-10-28T10:54:14.378Z,1.67
2022-10-28T10:56:40.790Z,1.77
2022-10-28T10:59:16.039Z,1.55
2022-10-28T11:01:42.602Z,1.98
2022-10-28T11:04:15.629Z,1.88
2022-10-28T11:06:43.747Z,1.60
2022-10-28T11:09:23.343Z,1.90
2022-10-28T11:11:49.810Z,2.17
2022-10-28T11:14:27.901Z,1.88
2022-10-28T11:16:55.710Z,1.80
2022-10-28T11:19:28.351Z,2.38
2022-10-28T11:22:13.523Z,1.75
2022-10-28T11:24:58.793Z,2.58
2022-10-28T11:27:25.238Z,1.92
2022-10-28T11:29:51.891Z,1.88
2022-10-28T11:32:24.117Z,3.45
2022-10-28T11:37:49.443Z,4.50
2022-10-28T11:40:22.742Z,6.28
2022-10-28T11:42:58.313Z,6.68
2022-10-28T11:45:35.047Z,7.00
2022-10-28T11:48:10.760Z,6.30
2022-10-28T11:50:49.028Z,7.03
2022-10-28T11:53:21.596Z,6.75
2022-10-28T11:55:53.963Z,6.88
2022-10-28T11:58:35.774Z,6.93
2022-10-28T12:01:05.308Z,6.25
2022-10-28T12:03:47.048Z,7.20
2022-10-28T12:06:22.933Z,6.45
2022-10-28T12:08:58.530Z,5.63
2022-10-28T12:11:25.032Z,6.22
2022-10-28T12:13:58.663Z,7.80
2022-10-28T12:16:35.378Z,5.97
2022-10-28T12:19:14.305Z,28.52
2022-10-28T12:21:44.157Z,24.85
2022-10-28T12:24:13.740Z,9.10
2022-10-28T12:26:42.147Z,20.08
2022-10-28T12:29:14.806Z,11.85
2022-10-28T12:31:46.612Z,8.30
2022-10-28T12:34:18.577Z,5.65
2022-10-28T12:37:00.009Z,7.90
2022-10-28T12:39:33.182Z,6.37
2022-10-28T12:42:11.142Z,5.15
2022-10-28T12:44:38.087Z,4.68
2022-10-28T12:47:20.156Z,4.82
2022-10-28T12:50:00.542Z,3.78
2022-10-28T12:52:32.711Z,4.05
2022-10-28T12:57:26.132Z,5.53
2022-10-28T12:59:56.854Z,4.90
2022-10-28T13:02:26.860Z,5.40
2022-10-28T13:04:53.461Z,5.80
2022-10-28T13:07:38.678Z,4.50
2022-10-28T13:10:24.016Z,3.10
2022-10-28T13:13:09.328Z,4.07
2022-10-28T13:15:46.473Z,3.45
2022-10-28T13:18:38.360Z,4.35
2022-10-28T13:21:23.254Z,3.65
2022-10-28T13:23:49.643Z,2.90
2022-10-28T13:26:31.123Z,2.97
2022-10-28T13:28:59.107Z,2.80
2022-10-28T13:31:55.068Z,2.40
2022-10-28T13:34:30.461Z,3.75
2022-10-28T13:36:59.367Z,3.47
2022-10-28T13:39:39.870Z,2.60
2022-10-28T13:42:12.401Z,3.40
2022-10-28T13:44:49.482Z,2.35
2022-10-28T13:47:42.486Z,3.20
2022-10-28T13:50:13.247Z,3.40
2022-10-28T13:52:40.603Z,2.45
2022-10-28T13:55:16.209Z,2.67
2022-10-28T13:57:44.213Z,3.13
2022-10-28T14:00:20.282Z,2.95
2022-10-28T14:02:54.653Z,2.17
2022-10-28T14:05:36.998Z,2.90
2022-10-28T14:08:05.063Z,2.55
2022-10-28T14:10:36.535Z,2.10
2022-10-28T14:13:23.207Z,2.40
2022-10-28T14:15:50.226Z,3.08
2022-10-28T14:21:05.927Z,2.22
2022-10-28T14:23:32.344Z,3.83
2022-10-28T14:26:00.693Z,2.67
2022-10-28T14:28:27.127Z,1.77
2022-10-28T14:31:11.856Z,2.70
2022-10-28T14:33:44.434Z,1.63
2022-10-28T14:36:20.086Z,1.30
2022-10-28T14:39:01.695Z,2.00
2022-10-28T14:41:36.910Z,1.65
2022-10-28T14:44:06.242Z,2.00
2022-10-28T14:46:35.763Z,1.83
2022-10-28T14:49:11.578Z,1.58
2022-10-28T14:51:41.899Z,1.90
2022-10-28T14:54:12.872Z,2.85
2022-10-28T14:56:40.358Z,2.42
2022-10-28T14:59:25.707Z,2.08
2022-10-28T15:02:00.575Z,1.40
2022-10-28T15:04:28.119Z,1.75
2022-10-28T15:06:54.648Z,2.03
2022-10-28T15:09:22.767Z,1.58
2022-10-28T15:11:50.810Z,1.55
2022-10-28T15:14:24.795Z,1.67
2022-10-28T15:16:51.341Z,2.03
2022-10-28T15:19:19.612Z,1.52
2022-10-28T15:21:59.418Z,1.30
2022-10-28T15:24:25.910Z,1.45
2022-10-28T15:26:56.188Z,1.90
2022-10-28T15:29:23.055Z,1.08
2022-10-28T15:32:08.019Z,1.20
2022-10-28T15:34:34.894Z,1.40
2022-10-28T15:37:01.423Z,1.95
2022-10-28T15:39:28.170Z,1.77
2022-10-28T15:41:54.968Z,1.83
2022-10-28T15:44:26.172Z,1.88
2022-10-28T15:46:53.040Z,1.47
2022-10-28T15:49:33.408Z,1.73
2022-10-28T15:52:18.127Z,1.15
2022-10-28T15:54:54.423Z,3.38
2022-10-28T15:57:21.841Z,2.00
2022-10-28T15:59:48.303Z,1.63
2022-10-28T16:02:33.514Z,1.55
2022-10-28T16:05:00.594Z,1.83
2022-10-28T16:07:27.075Z,1.73
2022-10-28T16:09:53.509Z,1.80
2022-10-28T16:12:21.499Z,1.65
2022-10-28T16:14:55.600Z,2.38
2022-10-28T16:17:23.893Z,1.58
2022-10-28T16:19:55.304Z,1.77
2022-10-28T16:22:22.833Z,1.27
2022-10-28T16:24:49.895Z,1.63
2022-10-28T16:27:16.312Z,2.97
2022-10-28T16:29:42.731Z,2.25
2022-10-28T16:32:11.775Z,2.30
2022-10-28T16:34:39.670Z,2.30
2022-10-28T16:37:18.346Z,2.10
2022-10-28T16:39:44.761Z,3.25
2022-10-28T16:42:11.311Z,2.92
2022-10-28T16:44:37.832Z,3.03
2022-10-28T16:47:14.148Z,3.38
2022-10-28T16:49:41.256Z,2.67
2022-10-28T16:52:13.656Z,2.58
2022-10-28T16:54:40.098Z,3.03
2022-10-28T16:57:06.551Z,2.75
2022-10-28T16:59:33.022Z,2.42
2022-10-28T17:01:59.758Z,2.42
2022-10-28T17:04:26.363Z,2.60
2022-10-28T17:06:52.810Z,2.67
2022-10-28T17:09:19.273Z,2.28
2022-10-28T17:11:45.702Z,2.30
2022-10-28T17:14:12.137Z,2.88
2022-10-28T17:16:40.731Z,2.40
2022-10-28T17:19:09.855Z,2.90
2022-10-28T17:21:36.302Z,2.95
2022-10-28T17:24:03.767Z,2.80
2022-10-28T17:26:30.184Z,3.10
2022-10-28T17:28:56.615Z,2.92
2022-10-28T17:31:25.130Z,2.90
2022-10-28T17:33:55.284Z,2.78
2022-10-28T17:36:24.108Z,2.25
2022-10-28T17:38:55.141Z,2.08
2022-10-28T17:41:21.796Z,2.30
2022-10-28T17:43:48.271Z,2.20
2022-10-28T17:46:14.755Z,2.50
2022-10-28T17:48:41.190Z,3.30
2022-10-28T17:51:07.816Z,2.38
2022-10-28T17:53:34.882Z,2.10
2022-10-28T17:56:15.521Z,3.40
2022-10-28T17:58:47.918Z,2.83
2022-10-28T18:01:14.595Z,2.58
2022-10-28T18:03:41.154Z,2.28
2022-10-28T18:06:10.478Z,2.38
2022-10-28T18:08:38.983Z,2.20
2022-10-28T18:11:06.186Z,3.05
2022-10-28T18:13:33.880Z,2.25
2022-10-28T18:16:07.672Z,2.53
2022-10-28T18:18:39.117Z,2.53
2022-10-28T18:21:09.575Z,2.28
2022-10-28T18:23:36.157Z,2.25
2022-10-28T18:26:02.718Z,2.63
2022-10-28T18:28:33.095Z,2.00
2022-10-28T18:31:12.885Z,2.35
2022-10-28T18:33:39.732Z,2.50
2022-10-28T18:36:08.008Z,2.22
2022-10-28T18:38:34.559Z,2.25
2022-10-28T18:41:03.961Z,2.13
2022-10-28T18:43:30.505Z,2.17
2022-10-28T18:46:02.573Z,2.45
2022-10-28T18:48:30.284Z,2.20
2022-10-28T18:51:11.313Z,1.92
2022-10-28T18:53:53.617Z,2.28
2022-10-28T18:58:52.327Z,2.90
2022-10-28T19:01:29.741Z,2.40
2022-10-28T19:04:34.020Z,2.08
2022-10-28T19:10:01.826Z,2.40
2022-10-28T19:12:48.002Z,2.25
2022-10-28T19:15:19.891Z,2.38
2022-10-28T19:17:58.329Z,2.35
2022-10-28T19:20:34.463Z,2.20
2022-10-28T19:23:13.673Z,1.95
2022-10-28T19:26:25.250Z,1.70
2022-10-28T19:29:26.468Z,2.50
2022-10-28T19:32:01.455Z,2.65
2022-10-28T19:34:48.476Z,2.38
2022-10-28T19:37:15.985Z,2.20
2022-10-28T19:43:03.657Z,1.85
2022-10-28T19:51:52.216Z,2.28
2022-10-28T19:54:32.170Z,3.20
2022-10-28T19:57:19.409Z,3.22
2022-10-28T19:59:59.179Z,2.60
2022-10-28T20:05:11.229Z,2.58
2022-10-28T20:07:37.713Z,2.75
2022-10-28T20:10:04.466Z,2.75
2022-10-28T20:12:31.001Z,2.75
2022-10-28T20:14:57.423Z,2.90
2022-10-28T20:17:23.862Z,2.72
2022-10-28T20:19:50.252Z,3.17
2022-10-28T20:22:17.293Z,2.85
2022-10-28T20:24:43.724Z,2.60
2022-10-28T20:27:10.249Z,2.85
2022-10-28T20:29:36.939Z,2.50
2022-10-28T20:32:03.453Z,2.80
2022-10-28T20:34:29.919Z,2.63
2022-10-28T20:36:56.339Z,2.90
2022-10-28T20:39:22.942Z,3.20
2022-10-28T20:41:53.855Z,2.72
2022-10-28T20:44:20.943Z,2.88
2022-10-28T20:46:48.169Z,3.05
2022-10-28T20:49:15.103Z,3.00
2022-10-28T20:51:42.056Z,3.25
2022-10-28T20:54:08.647Z,3.08
2022-10-28T20:56:36.516Z,3.47
2022-10-28T20:59:03.613Z,3.20
2022-10-28T21:01:31.427Z,3.25
2022-10-28T21:04:09.074Z,3.20
2022-10-28T21:06:36.166Z,3.20
2022-10-28T21:09:05.083Z,2.90
2022-10-28T21:11:32.324Z,3.35
2022-10-28T21:13:59.839Z,3.53
2022-10-28T21:16:27.016Z,3.10
2022-10-28T21:18:53.567Z,2.72
2022-10-28T21:22:02.420Z,3.30
2022-10-28T21:24:28.864Z,4.38
2022-10-28T21:27:21.647Z,3.40
2022-10-28T21:29:54.672Z,3.13
2022-10-28T21:32:28.014Z,3.67
2022-10-28T21:35:02.373Z,3.83
2022-10-28T21:37:51.931Z,3.55
2022-10-28T21:40:30.929Z,3.17
2022-10-28T21:43:05.913Z,3.65
2022-10-28T21:45:34.830Z,3.05
2022-10-28T21:48:16.828Z,4.07
2022-10-28T21:53:34.000Z,2.95
2022-10-28T21:56:36.544Z,2.88
2022-10-28T21:59:33.963Z,3.65
2022-10-28T22:02:11.338Z,2.95
2022-10-28T22:04:43.478Z,2.88
2022-10-28T22:07:36.142Z,3.42
2022-10-28T22:10:17.004Z,4.40
2022-10-28T22:12:53.431Z,3.00
2022-10-28T22:15:31.641Z,2.90
2022-10-28T22:18:09.132Z,3.30
2022-10-28T22:20:53.822Z,3.28
2022-10-28T22:23:23.349Z,2.75
2022-10-28T22:28:56.390Z,3.30
2022-10-28T22:31:32.082Z,2.95
2022-10-28T22:34:22.139Z,3.08
2022-10-28T22:37:07.769Z,3.30
2022-10-28T22:39:41.164Z,2.50
2022-10-28T22:42:08.598Z,3.20
2022-10-28T22:44:41.347Z,2.75
2022-10-28T22:47:08.767Z,2.97
2022-10-28T22:49:47.893Z,2.80
2022-10-28T22:52:18.503Z,2.72
2022-10-28T22:55:03.941Z,2.25
2022-10-28T22:57:37.864Z,2.45
2022-10-28T23:00:11.743Z,2.47
2022-10-28T23:02:38.362Z,2.80
2022-10-28T23:05:05.318Z,2.80
2022-10-28T23:07:32.330Z,2.20
2022-10-28T23:10:00.588Z,2.65
2022-10-28T23:12:27.016Z,2.50
2022-10-28T23:14:53.444Z,2.40
2022-10-28T23:17:19.896Z,2.33
2022-10-28T23:19:46.388Z,2.38
2022-10-28T23:22:12.836Z,2.67
2022-10-28T23:24:40.006Z,2.42
2022-10-28T23:27:06.445Z,2.28
2022-10-28T23:29:32.895Z,2.38
2022-10-28T23:31:59.342Z,2.72
2022-10-28T23:34:28.033Z,2.08
2022-10-28T23:36:54.650Z,2.15
2022-10-28T23:39:21.395Z,2.65
2022-10-28T23:41:48.196Z,2.10
2022-10-28T23:44:15.071Z,2.03
2022-10-28T23:46:41.614Z,1.85
2022-10-28T23:49:08.026Z,2.42
2022-10-28T23:51:34.434Z,1.90
2022-10-28T23:54:00.964Z,2.28
2022-10-28T23:56:27.409Z,1.92
2022-10-28T23:58:53.857Z,2.03
